Weather at Isle of Man Airport

Public forecast

Using degrees Celsius for public forecast. Weather courtesy of forecast.io.

Current aviation weather report (METAR) for Isle of Man Airport

Retrieved 2020/09/22 22:50 UTC (29 minutes ago):

EGNS 222250Z 30007KT 260V340 9000 RA OVC025 12/10 Q1000

Aviation forecast (TAF) for Isle of Man Airport

Forecast is more than 12 hours old.

Retrieved 2017/03/09 09:27 UTC (4 years ago):

TAF TAF EGNS 090800Z 0909/0921 29012KT 9999 SCT018